sensor_id;sensor_type;location;lat;lon;timestamp;P1;durP1;ratioP1;P2;durP2;ratioP2
67503;SDS011;54351;49.108;1.502;2022-12-11T00:00:00;772.58;;;718.75;;
67503;SDS011;54351;49.108;1.502;2022-12-11T00:02:27;789.95;;;734.78;;
67503;SDS011;54351;49.108;1.502;2022-12-11T00:04:54;788.92;;;733.63;;
67503;SDS011;54351;49.108;1.502;2022-12-11T00:07:20;774.03;;;720.00;;
67503;SDS011;54351;49.108;1.502;2022-12-11T00:09:46;791.08;;;736.08;;
67503;SDS011;54351;49.108;1.502;2022-12-11T00:12:12;797.75;;;741.83;;
67503;SDS011;54351;49.108;1.502;2022-12-11T00:14:38;807.80;;;751.08;;
67503;SDS011;54351;49.108;1.502;2022-12-11T00:17:04;776.40;;;722.72;;
67503;SDS011;54351;49.108;1.502;2022-12-11T00:19:30;781.83;;;727.40;;
67503;SDS011;54351;49.108;1.502;2022-12-11T00:21:56;721.45;;;670.95;;
67503;SDS011;54351;49.108;1.502;2022-12-11T00:24:22;797.92;;;742.03;;
67503;SDS011;54351;49.108;1.502;2022-12-11T00:26:48;686.70;;;638.33;;
67503;SDS011;54351;49.108;1.502;2022-12-11T00:29:14;705.22;;;655.88;;
67503;SDS011;54351;49.108;1.502;2022-12-11T00:31:41;798.67;;;743.25;;
67503;SDS011;54351;49.108;1.502;2022-12-11T00:34:07;838.38;;;779.67;;
67503;SDS011;54351;49.108;1.502;2022-12-11T00:36:33;804.22;;;748.22;;
67503;SDS011;54351;49.108;1.502;2022-12-11T00:39:00;794.78;;;739.53;;
67503;SDS011;54351;49.108;1.502;2022-12-11T00:41:26;788.55;;;733.45;;
67503;SDS011;54351;49.108;1.502;2022-12-11T00:43:53;765.50;;;712.53;;
67503;SDS011;54351;49.108;1.502;2022-12-11T00:46:19;813.35;;;756.72;;
67503;SDS011;54351;49.108;1.502;2022-12-11T00:48:45;778.85;;;724.17;;
67503;SDS011;54351;49.108;1.502;2022-12-11T00:51:12;800.17;;;744.38;;
67503;SDS011;54351;49.108;1.502;2022-12-11T00:53:38;808.83;;;752.22;;
67503;SDS011;54351;49.108;1.502;2022-12-11T00:56:11;799.80;;;744.15;;
67503;SDS011;54351;49.108;1.502;2022-12-11T00:58:38;794.13;;;738.88;;
67503;SDS011;54351;49.108;1.502;2022-12-11T01:01:08;781.35;;;727.20;;
67503;SDS011;54351;49.108;1.502;2022-12-11T01:03:35;743.63;;;691.80;;
67503;SDS011;54351;49.108;1.502;2022-12-11T01:06:01;793.22;;;738.20;;
67503;SDS011;54351;49.108;1.502;2022-12-11T01:08:27;788.42;;;733.28;;
67503;SDS011;54351;49.108;1.502;2022-12-11T01:11:00;715.97;;;664.97;;
67503;SDS011;54351;49.108;1.502;2022-12-11T01:13:26;749.20;;;696.67;;
67503;SDS011;54351;49.108;1.502;2022-12-11T01:15:53;759.35;;;706.72;;
67503;SDS011;54351;49.108;1.502;2022-12-11T01:18:19;812.55;;;756.03;;
67503;SDS011;54351;49.108;1.502;2022-12-11T01:20:45;785.42;;;730.78;;
67503;SDS011;54351;49.108;1.502;2022-12-11T01:23:11;746.80;;;694.33;;
67503;SDS011;54351;49.108;1.502;2022-12-11T01:25:38;758.50;;;704.95;;
67503;SDS011;54351;49.108;1.502;2022-12-11T01:28:04;787.65;;;733.33;;
67503;SDS011;54351;49.108;1.502;2022-12-11T01:30:31;799.22;;;743.53;;
67503;SDS011;54351;49.108;1.502;2022-12-11T01:32:57;782.95;;;728.28;;
67503;SDS011;54351;49.108;1.502;2022-12-11T01:35:24;801.33;;;745.95;;
67503;SDS011;54351;49.108;1.502;2022-12-11T01:37:50;791.28;;;736.33;;
67503;SDS011;54351;49.108;1.502;2022-12-11T01:40:17;777.00;;;723.03;;
67503;SDS011;54351;49.108;1.502;2022-12-11T01:42:43;790.35;;;736.03;;
67503;SDS011;54351;49.108;1.502;2022-12-11T01:48:03;757.97;;;705.58;;
67503;SDS011;54351;49.108;1.502;2022-12-11T01:50:30;750.42;;;698.47;;
67503;SDS011;54351;49.108;1.502;2022-12-11T01:52:58;685.53;;;638.58;;
67503;SDS011;54351;49.108;1.502;2022-12-11T01:55:24;767.85;;;714.90;;
67503;SDS011;54351;49.108;1.502;2022-12-11T01:57:50;710.22;;;661.67;;
67503;SDS011;54351;49.108;1.502;2022-12-11T02:00:17;669.53;;;623.72;;
67503;SDS011;54351;49.108;1.502;2022-12-11T02:02:44;605.22;;;563.97;;
67503;SDS011;54351;49.108;1.502;2022-12-11T02:05:10;718.35;;;669.50;;
67503;SDS011;54351;49.108;1.502;2022-12-11T02:07:41;703.78;;;655.83;;
67503;SDS011;54351;49.108;1.502;2022-12-11T02:10:09;680.70;;;634.00;;
67503;SDS011;54351;49.108;1.502;2022-12-11T02:17:53;686.97;;;640.22;;
67503;SDS011;54351;49.108;1.502;2022-12-11T02:20:22;704.00;;;655.63;;
67503;SDS011;54351;49.108;1.502;2022-12-11T02:25:45;563.70;;;525.45;;
67503;SDS011;54351;49.108;1.502;2022-12-11T02:33:44;659.50;;;614.42;;
67503;SDS011;54351;49.108;1.502;2022-12-11T02:36:12;718.78;;;670.15;;
67503;SDS011;54351;49.108;1.502;2022-12-11T02:38:40;619.90;;;578.00;;
67503;SDS011;54351;49.108;1.502;2022-12-11T02:41:08;711.92;;;663.58;;
67503;SDS011;54351;49.108;1.502;2022-12-11T02:43:36;720.05;;;671.28;;
67503;SDS011;54351;49.108;1.502;2022-12-11T02:46:03;722.67;;;673.15;;
67503;SDS011;54351;49.108;1.502;2022-12-11T02:48:31;711.95;;;663.22;;
67503;SDS011;54351;49.108;1.502;2022-12-11T02:50:57;753.13;;;701.25;;
67503;SDS011;54351;49.108;1.502;2022-12-11T02:53:26;694.30;;;646.33;;
67503;SDS011;54351;49.108;1.502;2022-12-11T02:55:56;732.78;;;682.40;;
67503;SDS011;54351;49.108;1.502;2022-12-11T02:58:25;750.97;;;698.38;;
67503;SDS011;54351;49.108;1.502;2022-12-11T03:00:52;685.83;;;637.92;;
67503;SDS011;54351;49.108;1.502;2022-12-11T03:03:18;753.17;;;701.58;;
67503;SDS011;54351;49.108;1.502;2022-12-11T03:05:45;701.58;;;654.47;;
67503;SDS011;54351;49.108;1.502;2022-12-11T03:08:11;761.33;;;709.58;;
67503;SDS011;54351;49.108;1.502;2022-12-11T03:10:41;735.80;;;686.00;;
67503;SDS011;54351;49.108;1.502;2022-12-11T03:13:07;743.03;;;692.00;;
67503;SDS011;54351;49.108;1.502;2022-12-11T03:18:14;776.92;;;723.70;;
67503;SDS011;54351;49.108;1.502;2022-12-11T03:20:44;755.70;;;703.25;;
67503;SDS011;54351;49.108;1.502;2022-12-11T03:23:19;777.20;;;723.83;;
67503;SDS011;54351;49.108;1.502;2022-12-11T03:25:54;750.10;;;698.35;;
67503;SDS011;54351;49.108;1.502;2022-12-11T03:30:50;744.38;;;693.53;;
67503;SDS011;54351;49.108;1.502;2022-12-11T03:33:20;730.97;;;681.30;;
67503;SDS011;54351;49.108;1.502;2022-12-11T03:35:50;662.85;;;617.58;;
67503;SDS011;54351;49.108;1.502;2022-12-11T03:38:21;681.25;;;633.13;;
67503;SDS011;54351;49.108;1.502;2022-12-11T03:40:48;751.67;;;700.05;;
67503;SDS011;54351;49.108;1.502;2022-12-11T03:43:17;709.13;;;660.60;;
67503;SDS011;54351;49.108;1.502;2022-12-11T03:45:44;775.17;;;721.22;;
67503;SDS011;54351;49.108;1.502;2022-12-11T03:48:11;744.50;;;694.00;;
67503;SDS011;54351;49.108;1.502;2022-12-11T03:50:38;775.17;;;721.95;;
67503;SDS011;54351;49.108;1.502;2022-12-11T03:53:05;766.50;;;714.50;;
67503;SDS011;54351;49.108;1.502;2022-12-11T03:55:32;776.63;;;723.65;;
67503;SDS011;54351;49.108;1.502;2022-12-11T03:57:58;757.72;;;706.25;;
67503;SDS011;54351;49.108;1.502;2022-12-11T04:00:24;769.47;;;716.78;;
67503;SDS011;54351;49.108;1.502;2022-12-11T04:02:50;739.30;;;688.80;;
67503;SDS011;54351;49.108;1.502;2022-12-11T04:05:35;716.45;;;667.78;;
67503;SDS011;54351;49.108;1.502;2022-12-11T04:08:01;649.67;;;605.75;;
67503;SDS011;54351;49.108;1.502;2022-12-11T04:10:27;751.50;;;700.13;;
67503;SDS011;54351;49.108;1.502;2022-12-11T04:12:54;724.63;;;675.35;;
67503;SDS011;54351;49.108;1.502;2022-12-11T04:15:20;637.08;;;593.45;;
67503;SDS011;54351;49.108;1.502;2022-12-11T04:17:46;706.08;;;658.38;;
67503;SDS011;54351;49.108;1.502;2022-12-11T04:20:30;638.78;;;595.70;;
67503;SDS011;54351;49.108;1.502;2022-12-11T04:23:23;736.60;;;686.63;;
67503;SDS011;54351;49.108;1.502;2022-12-11T04:26:13;718.20;;;669.42;;
67503;SDS011;54351;49.108;1.502;2022-12-11T04:28:39;750.90;;;699.85;;
67503;SDS011;54351;49.108;1.502;2022-12-11T04:31:09;758.47;;;706.97;;
67503;SDS011;54351;49.108;1.502;2022-12-11T04:33:36;730.22;;;680.72;;
67503;SDS011;54351;49.108;1.502;2022-12-11T04:36:02;770.25;;;717.83;;
67503;SDS011;54351;49.108;1.502;2022-12-11T04:38:28;783.63;;;729.72;;
67503;SDS011;54351;49.108;1.502;2022-12-11T04:40:58;604.75;;;563.60;;
67503;SDS011;54351;49.108;1.502;2022-12-11T04:43:24;718.22;;;669.20;;
67503;SDS011;54351;49.108;1.502;2022-12-11T04:45:58;703.35;;;655.83;;
67503;SDS011;54351;49.108;1.502;2022-12-11T04:48:24;708.88;;;660.00;;
67503;SDS011;54351;49.108;1.502;2022-12-11T04:50:51;639.90;;;595.08;;
67503;SDS011;54351;49.108;1.502;2022-12-11T04:53:17;697.72;;;650.60;;
67503;SDS011;54351;49.108;1.502;2022-12-11T04:55:43;742.22;;;691.95;;
67503;SDS011;54351;49.108;1.502;2022-12-11T04:58:09;741.28;;;690.67;;
67503;SDS011;54351;49.108;1.502;2022-12-11T05:00:35;742.05;;;691.53;;
67503;SDS011;54351;49.108;1.502;2022-12-11T05:03:01;761.90;;;709.67;;
67503;SDS011;54351;49.108;1.502;2022-12-11T05:05:27;731.58;;;682.10;;
67503;SDS011;54351;49.108;1.502;2022-12-11T05:07:53;732.30;;;682.67;;
67503;SDS011;54351;49.108;1.502;2022-12-11T05:10:19;766.55;;;714.55;;
67503;SDS011;54351;49.108;1.502;2022-12-11T05:12:45;765.55;;;713.53;;
67503;SDS011;54351;49.108;1.502;2022-12-11T05:15:11;766.35;;;714.22;;
67503;SDS011;54351;49.108;1.502;2022-12-11T05:17:37;754.15;;;702.35;;
67503;SDS011;54351;49.108;1.502;2022-12-11T05:20:04;755.60;;;703.50;;
67503;SDS011;54351;49.108;1.502;2022-12-11T05:22:30;711.63;;;662.88;;
67503;SDS011;54351;49.108;1.502;2022-12-11T05:24:56;741.30;;;690.78;;
67503;SDS011;54351;49.108;1.502;2022-12-11T05:27:22;730.15;;;680.75;;
67503;SDS011;54351;49.108;1.502;2022-12-11T05:29:48;670.13;;;624.75;;
67503;SDS011;54351;49.108;1.502;2022-12-11T05:32:14;579.53;;;539.80;;
67503;SDS011;54351;49.108;1.502;2022-12-11T05:34:41;553.08;;;515.28;;
67503;SDS011;54351;49.108;1.502;2022-12-11T05:37:07;687.92;;;641.38;;
67503;SDS011;54351;49.108;1.502;2022-12-11T05:39:33;728.72;;;679.45;;
67503;SDS011;54351;49.108;1.502;2022-12-11T05:41:59;725.25;;;676.05;;
67503;SDS011;54351;49.108;1.502;2022-12-11T05:44:25;715.30;;;666.90;;
67503;SDS011;54351;49.108;1.502;2022-12-11T05:46:51;698.97;;;651.40;;
67503;SDS011;54351;49.108;1.502;2022-12-11T05:49:17;691.13;;;644.60;;
67503;SDS011;54351;49.108;1.502;2022-12-11T05:51:43;722.80;;;674.08;;
67503;SDS011;54351;49.108;1.502;2022-12-11T05:54:09;698.38;;;650.78;;
67503;SDS011;54351;49.108;1.502;2022-12-11T05:56:35;665.60;;;620.83;;
67503;SDS011;54351;49.108;1.502;2022-12-11T05:59:02;661.63;;;616.65;;
67503;SDS011;54351;49.108;1.502;2022-12-11T06:01:33;685.97;;;640.20;;
67503;SDS011;54351;49.108;1.502;2022-12-11T06:04:00;738.53;;;688.95;;
67503;SDS011;54351;49.108;1.502;2022-12-11T06:06:26;712.47;;;665.05;;
67503;SDS011;54351;49.108;1.502;2022-12-11T06:08:53;725.67;;;677.25;;
67503;SDS011;54351;49.108;1.502;2022-12-11T06:11:20;747.50;;;696.70;;
67503;SDS011;54351;49.108;1.502;2022-12-11T06:13:47;732.15;;;682.38;;
67503;SDS011;54351;49.108;1.502;2022-12-11T06:16:13;754.05;;;702.97;;
67503;SDS011;54351;49.108;1.502;2022-12-11T06:18:40;734.30;;;684.58;;
67503;SDS011;54351;49.108;1.502;2022-12-11T06:21:16;721.40;;;672.67;;
67503;SDS011;54351;49.108;1.502;2022-12-11T06:23:42;746.78;;;696.15;;
67503;SDS011;54351;49.108;1.502;2022-12-11T06:26:09;662.95;;;618.78;;
67503;SDS011;54351;49.108;1.502;2022-12-11T06:28:36;714.53;;;666.22;;
67503;SDS011;54351;49.108;1.502;2022-12-11T06:31:02;761.15;;;709.47;;
67503;SDS011;54351;49.108;1.502;2022-12-11T06:33:28;764.33;;;712.55;;
67503;SDS011;54351;49.108;1.502;2022-12-11T06:35:54;750.97;;;699.88;;
67503;SDS011;54351;49.108;1.502;2022-12-11T06:38:21;729.63;;;680.38;;
67503;SDS011;54351;49.108;1.502;2022-12-11T06:40:53;719.85;;;671.53;;
67503;SDS011;54351;49.108;1.502;2022-12-11T06:43:19;724.83;;;675.90;;
67503;SDS011;54351;49.108;1.502;2022-12-11T06:45:45;767.33;;;715.50;;
67503;SDS011;54351;49.108;1.502;2022-12-11T06:48:12;742.95;;;692.58;;
67503;SDS011;54351;49.108;1.502;2022-12-11T06:50:38;703.00;;;654.80;;
67503;SDS011;54351;49.108;1.502;2022-12-11T06:53:04;766.60;;;714.22;;
67503;SDS011;54351;49.108;1.502;2022-12-11T06:55:33;745.63;;;695.13;;
67503;SDS011;54351;49.108;1.502;2022-12-11T06:57:59;718.22;;;669.45;;
67503;SDS011;54351;49.108;1.502;2022-12-11T07:00:25;720.05;;;671.60;;
67503;SDS011;54351;49.108;1.502;2022-12-11T07:02:51;708.03;;;660.90;;
67503;SDS011;54351;49.108;1.502;2022-12-11T07:05:18;700.78;;;653.65;;
67503;SDS011;54351;49.108;1.502;2022-12-11T07:07:44;705.85;;;658.45;;
67503;SDS011;54351;49.108;1.502;2022-12-11T07:10:10;708.15;;;659.95;;
67503;SDS011;54351;49.108;1.502;2022-12-11T07:12:37;570.78;;;532.35;;
67503;SDS011;54351;49.108;1.502;2022-12-11T07:15:04;624.90;;;582.83;;
67503;SDS011;54351;49.108;1.502;2022-12-11T07:17:30;669.47;;;624.17;;
67503;SDS011;54351;49.108;1.502;2022-12-11T07:19:56;581.58;;;542.33;;
67503;SDS011;54351;49.108;1.502;2022-12-11T07:22:22;426.67;;;397.30;;
67503;SDS011;54351;49.108;1.502;2022-12-11T07:24:48;540.33;;;503.52;;
67503;SDS011;54351;49.108;1.502;2022-12-11T07:27:15;669.70;;;624.50;;
67503;SDS011;54351;49.108;1.502;2022-12-11T07:29:41;605.65;;;564.83;;
67503;SDS011;54351;49.108;1.502;2022-12-11T07:32:07;531.10;;;494.95;;
67503;SDS011;54351;49.108;1.502;2022-12-11T07:34:33;516.53;;;481.63;;
67503;SDS011;54351;49.108;1.502;2022-12-11T07:36:59;537.42;;;501.73;;
67503;SDS011;54351;49.108;1.502;2022-12-11T07:39:25;700.33;;;653.35;;
67503;SDS011;54351;49.108;1.502;2022-12-11T07:41:51;658.88;;;614.55;;
67503;SDS011;54351;49.108;1.502;2022-12-11T07:44:17;698.55;;;651.85;;
67503;SDS011;54351;49.108;1.502;2022-12-11T07:46:43;652.20;;;608.67;;
67503;SDS011;54351;49.108;1.502;2022-12-11T07:49:09;735.95;;;685.97;;
67503;SDS011;54351;49.108;1.502;2022-12-11T07:51:36;747.40;;;696.53;;
67503;SDS011;54351;49.108;1.502;2022-12-11T07:54:06;732.45;;;682.78;;
67503;SDS011;54351;49.108;1.502;2022-12-11T07:56:33;755.37;;;704.07;;
67503;SDS011;54351;49.108;1.502;2022-12-11T07:59:03;668.28;;;622.90;;
67503;SDS011;54351;49.108;1.502;2022-12-11T08:01:31;758.25;;;706.90;;
67503;SDS011;54351;49.108;1.502;2022-12-11T08:03:57;676.95;;;630.80;;
67503;SDS011;54351;49.108;1.502;2022-12-11T08:06:27;598.92;;;557.25;;
67503;SDS011;54351;49.108;1.502;2022-12-11T08:08:54;686.58;;;639.53;;
67503;SDS011;54351;49.108;1.502;2022-12-11T08:11:20;739.60;;;689.22;;
67503;SDS011;54351;49.108;1.502;2022-12-11T08:13:49;645.80;;;602.00;;
67503;SDS011;54351;49.108;1.502;2022-12-11T08:16:16;656.30;;;611.60;;
67503;SDS011;54351;49.108;1.502;2022-12-11T08:18:45;399.27;;;371.45;;
67503;SDS011;54351;49.108;1.502;2022-12-11T08:21:17;686.17;;;639.40;;
67503;SDS011;54351;49.108;1.502;2022-12-11T08:23:43;695.83;;;648.47;;
67503;SDS011;54351;49.108;1.502;2022-12-11T08:26:11;710.38;;;662.17;;
67503;SDS011;54351;49.108;1.502;2022-12-11T08:28:41;714.30;;;665.92;;
67503;SDS011;54351;49.108;1.502;2022-12-11T08:31:07;690.70;;;643.75;;
67503;SDS011;54351;49.108;1.502;2022-12-11T08:33:34;620.97;;;579.00;;
67503;SDS011;54351;49.108;1.502;2022-12-11T08:36:05;676.83;;;631.25;;
67503;SDS011;54351;49.108;1.502;2022-12-11T08:38:31;652.05;;;607.65;;
67503;SDS011;54351;49.108;1.502;2022-12-11T08:40:58;631.22;;;588.38;;
67503;SDS011;54351;49.108;1.502;2022-12-11T08:43:27;596.55;;;555.88;;
67503;SDS011;54351;49.108;1.502;2022-12-11T08:45:53;614.58;;;572.72;;
67503;SDS011;54351;49.108;1.502;2022-12-11T08:48:19;709.97;;;661.50;;
67503;SDS011;54351;49.108;1.502;2022-12-11T08:50:45;723.55;;;674.55;;
67503;SDS011;54351;49.108;1.502;2022-12-11T08:53:11;687.40;;;640.75;;
67503;SDS011;54351;49.108;1.502;2022-12-11T08:55:37;692.78;;;645.35;;
67503;SDS011;54351;49.108;1.502;2022-12-11T08:58:03;700.67;;;653.22;;
67503;SDS011;54351;49.108;1.502;2022-12-11T09:00:29;706.85;;;658.58;;
67503;SDS011;54351;49.108;1.502;2022-12-11T09:02:56;670.75;;;625.20;;
67503;SDS011;54351;49.108;1.502;2022-12-11T09:05:22;717.78;;;669.38;;
67503;SDS011;54351;49.108;1.502;2022-12-11T09:07:48;596.70;;;556.38;;
67503;SDS011;54351;49.108;1.502;2022-12-11T09:10:14;707.60;;;659.45;;
67503;SDS011;54351;49.108;1.502;2022-12-11T09:12:40;583.40;;;543.75;;
67503;SDS011;54351;49.108;1.502;2022-12-11T09:15:06;698.03;;;650.20;;
67503;SDS011;54351;49.108;1.502;2022-12-11T09:17:33;756.85;;;705.65;;
67503;SDS011;54351;49.108;1.502;2022-12-11T09:19:59;701.85;;;654.28;;
67503;SDS011;54351;49.108;1.502;2022-12-11T09:22:25;601.45;;;560.85;;
67503;SDS011;54351;49.108;1.502;2022-12-11T09:24:51;497.05;;;463.02;;
67503;SDS011;54351;49.108;1.502;2022-12-11T09:27:17;548.25;;;511.02;;
67503;SDS011;54351;49.108;1.502;2022-12-11T09:29:45;557.40;;;520.13;;
67503;SDS011;54351;49.108;1.502;2022-12-11T09:32:11;522.10;;;486.85;;
67503;SDS011;54351;49.108;1.502;2022-12-11T09:34:37;540.75;;;504.25;;
67503;SDS011;54351;49.108;1.502;2022-12-11T09:37:03;577.15;;;538.00;;
67503;SDS011;54351;49.108;1.502;2022-12-11T09:39:29;647.10;;;603.80;;
67503;SDS011;54351;49.108;1.502;2022-12-11T09:42:02;632.25;;;589.78;;
67503;SDS011;54351;49.108;1.502;2022-12-11T09:44:49;604.53;;;563.85;;
67503;SDS011;54351;49.108;1.502;2022-12-11T09:50:45;472.48;;;440.55;;
67503;SDS011;54351;49.108;1.502;2022-12-11T09:52:58;568.92;;;531.03;;
67503;SDS011;54351;49.108;1.502;2022-12-11T09:55:42;591.50;;;551.15;;
67503;SDS011;54351;49.108;1.502;2022-12-11T10:03:48;635.05;;;592.40;;
67503;SDS011;54351;49.108;1.502;2022-12-11T10:14:09;579.08;;;540.13;;
67503;SDS011;54351;49.108;1.502;2022-12-11T10:19:17;706.13;;;658.78;;
67503;SDS011;54351;49.108;1.502;2022-12-11T10:21:50;530.08;;;494.58;;
67503;SDS011;54351;49.108;1.502;2022-12-11T10:24:22;527.10;;;491.83;;
67503;SDS011;54351;49.108;1.502;2022-12-11T10:26:52;504.30;;;470.45;;
67503;SDS011;54351;49.108;1.502;2022-12-11T10:29:19;524.15;;;488.65;;
67503;SDS011;54351;49.108;1.502;2022-12-11T10:32:06;519.92;;;484.65;;
67503;SDS011;54351;49.108;1.502;2022-12-11T10:34:33;388.10;;;361.50;;
67503;SDS011;54351;49.108;1.502;2022-12-11T10:37:02;488.17;;;455.20;;
67503;SDS011;54351;49.108;1.502;2022-12-11T10:39:28;430.80;;;401.35;;
67503;SDS011;54351;49.108;1.502;2022-12-11T10:41:55;387.70;;;360.77;;
67503;SDS011;54351;49.108;1.502;2022-12-11T10:44:28;322.90;;;300.33;;
67503;SDS011;54351;49.108;1.502;2022-12-11T10:47:02;397.38;;;370.33;;
67503;SDS011;54351;49.108;1.502;2022-12-11T10:49:30;510.10;;;474.95;;
67503;SDS011;54351;49.108;1.502;2022-12-11T10:51:57;456.83;;;425.08;;
67503;SDS011;54351;49.108;1.502;2022-12-11T10:54:34;586.47;;;545.47;;
67503;SDS011;54351;49.108;1.502;2022-12-11T10:57:02;429.40;;;399.95;;
67503;SDS011;54351;49.108;1.502;2022-12-11T11:02:05;420.15;;;391.48;;
67503;SDS011;54351;49.108;1.502;2022-12-11T11:04:34;443.95;;;413.70;;
67503;SDS011;54351;49.108;1.502;2022-12-11T11:07:01;414.60;;;386.48;;
67503;SDS011;54351;49.108;1.502;2022-12-11T11:09:29;449.25;;;418.92;;
67503;SDS011;54351;49.108;1.502;2022-12-11T11:11:56;565.80;;;527.47;;
67503;SDS011;54351;49.108;1.502;2022-12-11T11:14:27;391.88;;;364.33;;
67503;SDS011;54351;49.108;1.502;2022-12-11T11:16:56;448.23;;;417.20;;
67503;SDS011;54351;49.108;1.502;2022-12-11T11:19:31;509.48;;;474.48;;
67503;SDS011;54351;49.108;1.502;2022-12-11T11:22:04;438.20;;;408.35;;
67503;SDS011;54351;49.108;1.502;2022-12-11T11:24:38;522.83;;;486.90;;
67503;SDS011;54351;49.108;1.502;2022-12-11T11:30:04;486.30;;;451.88;;
67503;SDS011;54351;49.108;1.502;2022-12-11T11:35:57;289.38;;;269.48;;
67503;SDS011;54351;49.108;1.502;2022-12-11T11:43:47;241.40;;;224.82;;
67503;SDS011;54351;49.108;1.502;2022-12-11T11:46:19;386.77;;;360.20;;
67503;SDS011;54351;49.108;1.502;2022-12-11T11:48:49;255.57;;;238.77;;
67503;SDS011;54351;49.108;1.502;2022-12-11T11:53:46;180.55;;;168.25;;
67503;SDS011;54351;49.108;1.502;2022-12-11T11:56:22;381.30;;;356.38;;
67503;SDS011;54351;49.108;1.502;2022-12-11T11:58:56;333.40;;;310.73;;
67503;SDS011;54351;49.108;1.502;2022-12-11T12:01:25;363.17;;;338.75;;
67503;SDS011;54351;49.108;1.502;2022-12-11T12:03:51;428.65;;;400.95;;
67503;SDS011;54351;49.108;1.502;2022-12-11T12:06:30;412.75;;;385.08;;
67503;SDS011;54351;49.108;1.502;2022-12-11T12:14:02;447.08;;;417.55;;
67503;SDS011;54351;49.108;1.502;2022-12-11T12:19:02;303.92;;;283.65;;
67503;SDS011;54351;49.108;1.502;2022-12-11T12:21:35;238.57;;;221.88;;
67503;SDS011;54351;49.108;1.502;2022-12-11T12:26:33;159.43;;;148.35;;
67503;SDS011;54351;49.108;1.502;2022-12-11T12:34:09;275.25;;;256.42;;
67503;SDS011;54351;49.108;1.502;2022-12-11T12:39:26;424.30;;;396.77;;
67503;SDS011;54351;49.108;1.502;2022-12-11T12:41:58;316.45;;;295.85;;
67503;SDS011;54351;49.108;1.502;2022-12-11T12:44:26;388.02;;;362.48;;
67503;SDS011;54351;49.108;1.502;2022-12-11T12:47:02;318.02;;;297.10;;
67503;SDS011;54351;49.108;1.502;2022-12-11T12:49:34;506.80;;;472.58;;
67503;SDS011;54351;49.108;1.502;2022-12-11T12:57:50;340.33;;;316.13;;
67503;SDS011;54351;49.108;1.502;2022-12-11T13:02:52;459.50;;;428.52;;
67503;SDS011;54351;49.108;1.502;2022-12-11T13:05:24;504.52;;;470.48;;
67503;SDS011;54351;49.108;1.502;2022-12-11T13:07:54;401.33;;;373.77;;
67503;SDS011;54351;49.108;1.502;2022-12-11T13:10:24;385.30;;;358.73;;
67503;SDS011;54351;49.108;1.502;2022-12-11T13:12:55;589.53;;;550.15;;
67503;SDS011;54351;49.108;1.502;2022-12-11T13:15:38;551.05;;;513.80;;
67503;SDS011;54351;49.108;1.502;2022-12-11T13:20:51;497.73;;;463.92;;
67503;SDS011;54351;49.108;1.502;2022-12-11T13:23:30;531.53;;;495.38;;
67503;SDS011;54351;49.108;1.502;2022-12-11T13:26:01;483.13;;;450.52;;
67503;SDS011;54351;49.108;1.502;2022-12-11T13:28:45;543.53;;;506.65;;
67503;SDS011;54351;49.108;1.502;2022-12-11T13:33:45;545.72;;;509.30;;
67503;SDS011;54351;49.108;1.502;2022-12-11T13:38:42;616.17;;;574.97;;
67503;SDS011;54351;49.108;1.502;2022-12-11T13:41:10;489.90;;;456.58;;
67503;SDS011;54351;49.108;1.502;2022-12-11T13:43:55;572.60;;;534.30;;
67503;SDS011;54351;49.108;1.502;2022-12-11T13:46:26;456.60;;;425.83;;
67503;SDS011;54351;49.108;1.502;2022-12-11T13:48:57;352.38;;;328.48;;
67503;SDS011;54351;49.108;1.502;2022-12-11T13:51:25;528.20;;;492.75;;
67503;SDS011;54351;49.108;1.502;2022-12-11T14:02:48;385.65;;;359.25;;
67503;SDS011;54351;49.108;1.502;2022-12-11T14:05:42;493.77;;;460.75;;
67503;SDS011;54351;49.108;1.502;2022-12-11T14:08:29;528.38;;;493.05;;
67503;SDS011;54351;49.108;1.502;2022-12-11T14:21:02;497.90;;;464.90;;
67503;SDS011;54351;49.108;1.502;2022-12-11T14:23:35;476.55;;;444.58;;
67503;SDS011;54351;49.108;1.502;2022-12-11T14:32:03;538.75;;;502.90;;
67503;SDS011;54351;49.108;1.502;2022-12-11T15:14:56;510.77;;;477.20;;
67503;SDS011;54351;49.108;1.502;2022-12-11T15:33:43;437.13;;;409.23;;
67503;SDS011;54351;49.108;1.502;2022-12-11T15:39:53;396.65;;;371.73;;
67503;SDS011;54351;49.108;1.502;2022-12-11T15:48:59;353.63;;;331.48;;
67503;SDS011;54351;49.108;1.502;2022-12-11T16:01:35;469.13;;;438.75;;
67503;SDS011;54351;49.108;1.502;2022-12-11T16:04:01;542.47;;;506.95;;
67503;SDS011;54351;49.108;1.502;2022-12-11T16:06:27;366.40;;;342.80;;
67503;SDS011;54351;49.108;1.502;2022-12-11T16:08:53;364.35;;;341.15;;
67503;SDS011;54351;49.108;1.502;2022-12-11T16:11:30;468.98;;;438.25;;
67503;SDS011;54351;49.108;1.502;2022-12-11T16:17:04;416.17;;;389.00;;
67503;SDS011;54351;49.108;1.502;2022-12-11T16:19:34;357.40;;;333.65;;
67503;SDS011;54351;49.108;1.502;2022-12-11T16:25:12;346.38;;;323.92;;
67503;SDS011;54351;49.108;1.502;2022-12-11T16:27:59;171.32;;;159.27;;
67503;SDS011;54351;49.108;1.502;2022-12-11T16:30:28;404.63;;;377.92;;
67503;SDS011;54351;49.108;1.502;2022-12-11T16:33:07;265.42;;;247.70;;
67503;SDS011;54351;49.108;1.502;2022-12-11T16:35:36;349.38;;;326.42;;
67503;SDS011;54351;49.108;1.502;2022-12-11T16:38:05;240.10;;;223.93;;
67503;SDS011;54351;49.108;1.502;2022-12-11T16:40:32;430.40;;;401.85;;
67503;SDS011;54351;49.108;1.502;2022-12-11T16:42:58;474.60;;;442.98;;
67503;SDS011;54351;49.108;1.502;2022-12-11T16:45:32;364.98;;;340.20;;
67503;SDS011;54351;49.108;1.502;2022-12-11T16:48:00;301.70;;;281.05;;
67503;SDS011;54351;49.108;1.502;2022-12-11T16:50:33;405.02;;;377.50;;
67503;SDS011;54351;49.108;1.502;2022-12-11T16:53:20;319.45;;;297.98;;
67503;SDS011;54351;49.108;1.502;2022-12-11T16:55:46;253.02;;;235.75;;
67503;SDS011;54351;49.108;1.502;2022-12-11T16:58:20;363.35;;;338.98;;
67503;SDS011;54351;49.108;1.502;2022-12-11T17:03:43;256.05;;;239.23;;
67503;SDS011;54351;49.108;1.502;2022-12-11T17:12:18;192.63;;;179.07;;
67503;SDS011;54351;49.108;1.502;2022-12-11T17:14:49;176.57;;;163.50;;
67503;SDS011;54351;49.108;1.502;2022-12-11T17:17:37;271.17;;;252.35;;
67503;SDS011;54351;49.108;1.502;2022-12-11T17:20:02;297.77;;;277.67;;
67503;SDS011;54351;49.108;1.502;2022-12-11T17:22:28;443.67;;;413.40;;
67503;SDS011;54351;49.108;1.502;2022-12-11T17:24:55;287.00;;;267.27;;
67503;SDS011;54351;49.108;1.502;2022-12-11T17:27:21;306.45;;;285.45;;
67503;SDS011;54351;49.108;1.502;2022-12-11T17:29:47;171.80;;;159.57;;
67503;SDS011;54351;49.108;1.502;2022-12-11T17:32:14;196.88;;;183.15;;